Terminal Aerodrome Forecast
Issued by NWS

Home | Current Version | Previous Version | Text Only | Print | Product List | Glossary On
Versions: 1 2 3 4 5 6 7 8 9 10 11 12 13 14
490
FTUS46 KSGX 071136
TAFONT
TAF
KONT 071136Z 0712/0818 VRB05KT P6SM SKC WS020/02030KT
     FM071900 03015G25KT P6SM SKC
     FM080600 05025G35KT P6SM SKC=

USA.gov is the U.S. government's official web portal to all federal, state and local government web resources and services.